sensor_id;sensor_type;location;lat;lon;timestamp;pressure;altitude;pressure_sealevel;temperature;humidity
61571;BME280;47463;49.884;10.010;2024-03-02T00:00:01;100840;;;3.9;88
61571;BME280;47463;49.884;10.010;2024-03-02T00:05:01;100840;;;4;88
61571;BME280;47463;49.884;10.010;2024-03-02T00:10:01;100840;;;4;88
61571;BME280;47463;49.884;10.010;2024-03-02T00:15:01;100830;;;4;88
61571;BME280;47463;49.884;10.010;2024-03-02T00:20:01;100830;;;4;88
61571;BME280;47463;49.884;10.010;2024-03-02T00:25:01;100830;;;3.9;88
61571;BME280;47463;49.884;10.010;2024-03-02T00:30:01;100830;;;3.9;88
61571;BME280;47463;49.884;10.010;2024-03-02T00:35:01;100830;;;4;88
61571;BME280;47463;49.884;10.010;2024-03-02T00:40:01;100830;;;4;88
61571;BME280;47463;49.884;10.010;2024-03-02T00:45:01;100830;;;4.1;88
61571;BME280;47463;49.884;10.010;2024-03-02T00:50:01;100840;;;4.1;88
61571;BME280;47463;49.884;10.010;2024-03-02T00:55:01;100840;;;4.2;88
61571;BME280;47463;49.884;10.010;2024-03-02T01:00:01;100850;;;4.2;88
61571;BME280;47463;49.884;10.010;2024-03-02T01:05:01;100850;;;4.2;88
61571;BME280;47463;49.884;10.010;2024-03-02T01:10:01;100850;;;4.2;88
61571;BME280;47463;49.884;10.010;2024-03-02T01:15:01;100860;;;4.2;88
61571;BME280;47463;49.884;10.010;2024-03-02T01:20:01;100850;;;4.1;88
61571;BME280;47463;49.884;10.010;2024-03-02T01:25:01;100850;;;4.2;88
61571;BME280;47463;49.884;10.010;2024-03-02T01:30:01;100850;;;4.2;88
61571;BME280;47463;49.884;10.010;2024-03-02T01:35:01;100850;;;4.3;89
61571;BME280;47463;49.884;10.010;2024-03-02T01:40:01;100850;;;4.4;89
61571;BME280;47463;49.884;10.010;2024-03-02T01:45:01;100850;;;4.3;89
61571;BME280;47463;49.884;10.010;2024-03-02T01:50:01;100850;;;4.4;89
61571;BME280;47463;49.884;10.010;2024-03-02T01:55:01;100850;;;4.4;89
61571;BME280;47463;49.884;10.010;2024-03-02T02:00:01;100840;;;4.3;89
61571;BME280;47463;49.884;10.010;2024-03-02T02:05:01;100850;;;4.3;89
61571;BME280;47463;49.884;10.010;2024-03-02T02:10:01;100850;;;4.4;89
61571;BME280;47463;49.884;10.010;2024-03-02T02:15:01;100840;;;4.4;89
61571;BME280;47463;49.884;10.010;2024-03-02T02:20:01;100840;;;4.4;89
61571;BME280;47463;49.884;10.010;2024-03-02T02:25:01;100830;;;4.4;89
61571;BME280;47463;49.884;10.010;2024-03-02T02:30:01;100820;;;4.3;89
61571;BME280;47463;49.884;10.010;2024-03-02T02:35:01;100820;;;4.3;89
61571;BME280;47463;49.884;10.010;2024-03-02T02:40:01;100810;;;4.3;89
61571;BME280;47463;49.884;10.010;2024-03-02T02:45:01;100810;;;4.2;89
61571;BME280;47463;49.884;10.010;2024-03-02T02:50:01;100810;;;4.2;89
61571;BME280;47463;49.884;10.010;2024-03-02T02:55:01;100820;;;4.1;89
61571;BME280;47463;49.884;10.010;2024-03-02T03:00:01;100810;;;4.3;89
61571;BME280;47463;49.884;10.010;2024-03-02T03:05:01;100810;;;4.4;89
61571;BME280;47463;49.884;10.010;2024-03-02T03:10:01;100820;;;4.9;90
61571;BME280;47463;49.884;10.010;2024-03-02T03:15:01;100820;;;4.8;89
61571;BME280;47463;49.884;10.010;2024-03-02T03:20:01;100820;;;4.7;89
61571;BME280;47463;49.884;10.010;2024-03-02T03:25:01;100820;;;4.5;89
61571;BME280;47463;49.884;10.010;2024-03-02T03:30:01;100810;;;4.5;89
61571;BME280;47463;49.884;10.010;2024-03-02T03:35:01;100810;;;4.2;89
61571;BME280;47463;49.884;10.010;2024-03-02T03:40:01;100810;;;4.2;89
61571;BME280;47463;49.884;10.010;2024-03-02T03:45:01;100820;;;4.2;89
61571;BME280;47463;49.884;10.010;2024-03-02T03:50:01;100810;;;4.2;89
61571;BME280;47463;49.884;10.010;2024-03-02T03:55:01;100800;;;4;89
61571;BME280;47463;49.884;10.010;2024-03-02T04:00:01;100810;;;3.8;89
61571;BME280;47463;49.884;10.010;2024-03-02T04:05:01;100810;;;3.7;89
61571;BME280;47463;49.884;10.010;2024-03-02T04:10:01;100820;;;3.6;89
61571;BME280;47463;49.884;10.010;2024-03-02T04:15:01;100820;;;3.6;89
61571;BME280;47463;49.884;10.010;2024-03-02T04:20:01;100820;;;3.5;89
61571;BME280;47463;49.884;10.010;2024-03-02T04:25:01;100830;;;3.2;89
61571;BME280;47463;49.884;10.010;2024-03-02T04:30:01;100840;;;3.2;89
61571;BME280;47463;49.884;10.010;2024-03-02T04:35:01;100840;;;3.2;90
61571;BME280;47463;49.884;10.010;2024-03-02T04:40:01;100840;;;3;90
61571;BME280;47463;49.884;10.010;2024-03-02T04:45:01;100840;;;3;90
61571;BME280;47463;49.884;10.010;2024-03-02T04:50:01;100840;;;3;90
61571;BME280;47463;49.884;10.010;2024-03-02T04:55:01;100850;;;2.9;90
61571;BME280;47463;49.884;10.010;2024-03-02T05:00:01;100850;;;2.7;90
61571;BME280;47463;49.884;10.010;2024-03-02T05:05:01;100850;;;2.6;90
61571;BME280;47463;49.884;10.010;2024-03-02T05:10:01;100850;;;2.4;90
61571;BME280;47463;49.884;10.010;2024-03-02T05:15:01;100850;;;2.4;90
61571;BME280;47463;49.884;10.010;2024-03-02T05:20:01;100860;;;2.4;90
61571;BME280;47463;49.884;10.010;2024-03-02T05:25:01;100870;;;2.3;90
61571;BME280;47463;49.884;10.010;2024-03-02T05:30:01;100870;;;2.6;90
61571;BME280;47463;49.884;10.010;2024-03-02T05:35:01;100870;;;2.6;90
61571;BME280;47463;49.884;10.010;2024-03-02T05:40:01;100860;;;2.7;90
61571;BME280;47463;49.884;10.010;2024-03-02T05:45:01;100870;;;2.7;90
61571;BME280;47463;49.884;10.010;2024-03-02T05:50:01;100870;;;2.7;91
61571;BME280;47463;49.884;10.010;2024-03-02T05:55:01;100870;;;2.6;91
61571;BME280;47463;49.884;10.010;2024-03-02T06:00:01;100870;;;2.9;91
61571;BME280;47463;49.884;10.010;2024-03-02T06:05:01;100870;;;3;91
61571;BME280;47463;49.884;10.010;2024-03-02T06:10:01;100880;;;2.6;91
61571;BME280;47463;49.884;10.010;2024-03-02T06:15:01;100890;;;2.3;91
61571;BME280;47463;49.884;10.010;2024-03-02T06:20:01;100870;;;2.4;91
61571;BME280;47463;49.884;10.010;2024-03-02T06:25:01;100890;;;2.6;91
61571;BME280;47463;49.884;10.010;2024-03-02T06:30:01;100880;;;2.6;91
61571;BME280;47463;49.884;10.010;2024-03-02T06:35:01;100880;;;2.5;91
61571;BME280;47463;49.884;10.010;2024-03-02T06:40:01;100880;;;2.5;91
61571;BME280;47463;49.884;10.010;2024-03-02T06:45:01;100900;;;2.6;91
61571;BME280;47463;49.884;10.010;2024-03-02T06:50:01;100900;;;2.9;91
61571;BME280;47463;49.884;10.010;2024-03-02T06:55:01;100880;;;3.1;91
61571;BME280;47463;49.884;10.010;2024-03-02T07:00:01;100880;;;3.1;91
61571;BME280;47463;49.884;10.010;2024-03-02T07:05:01;100890;;;3;91
61571;BME280;47463;49.884;10.010;2024-03-02T07:10:01;100880;;;3.2;91
61571;BME280;47463;49.884;10.010;2024-03-02T07:15:01;100900;;;3.2;91
61571;BME280;47463;49.884;10.010;2024-03-02T07:20:01;100900;;;3.4;91
61571;BME280;47463;49.884;10.010;2024-03-02T07:25:01;100900;;;3.6;91
61571;BME280;47463;49.884;10.010;2024-03-02T07:30:01;100910;;;3.7;91
61571;BME280;47463;49.884;10.010;2024-03-02T07:35:01;100920;;;4;91
61571;BME280;47463;49.884;10.010;2024-03-02T07:40:01;100930;;;4.4;91
61571;BME280;47463;49.884;10.010;2024-03-02T07:45:01;100930;;;4.6;91
61571;BME280;47463;49.884;10.010;2024-03-02T07:50:01;100920;;;4.8;90
61571;BME280;47463;49.884;10.010;2024-03-02T07:55:01;100920;;;4.8;90
61571;BME280;47463;49.884;10.010;2024-03-02T08:00:01;100920;;;5.1;90
61571;BME280;47463;49.884;10.010;2024-03-02T08:05:01;100920;;;5.1;90
61571;BME280;47463;49.884;10.010;2024-03-02T08:10:01;100920;;;5.5;90
61571;BME280;47463;49.884;10.010;2024-03-02T08:15:01;100940;;;5.7;90
61571;BME280;47463;49.884;10.010;2024-03-02T08:20:01;100930;;;5.8;90
61571;BME280;47463;49.884;10.010;2024-03-02T08:25:01;100930;;;5.9;89
61571;BME280;47463;49.884;10.010;2024-03-02T08:30:01;100920;;;6.3;88
61571;BME280;47463;49.884;10.010;2024-03-02T08:35:01;100920;;;6.6;87
61571;BME280;47463;49.884;10.010;2024-03-02T08:40:01;100920;;;6.5;86
61571;BME280;47463;49.884;10.010;2024-03-02T08:45:01;100920;;;6.9;85
61571;BME280;47463;49.884;10.010;2024-03-02T08:50:01;100920;;;7;84
61571;BME280;47463;49.884;10.010;2024-03-02T08:55:01;100920;;;7;83
61571;BME280;47463;49.884;10.010;2024-03-02T09:00:15;100920;;;6.9;83
61571;BME280;47463;49.884;10.010;2024-03-02T09:05:01;100920;;;7;83
61571;BME280;47463;49.884;10.010;2024-03-02T09:10:01;100910;;;7;83
61571;BME280;47463;49.884;10.010;2024-03-02T09:15:01;100920;;;7;83
61571;BME280;47463;49.884;10.010;2024-03-02T09:20:01;100920;;;7.1;83
61571;BME280;47463;49.884;10.010;2024-03-02T09:25:01;100920;;;7.2;82
61571;BME280;47463;49.884;10.010;2024-03-02T09:30:01;100930;;;7.5;82
61571;BME280;47463;49.884;10.010;2024-03-02T09:35:01;100920;;;7.7;81
61571;BME280;47463;49.884;10.010;2024-03-02T09:40:01;100930;;;7.9;81
61571;BME280;47463;49.884;10.010;2024-03-02T09:45:01;100930;;;8;79
61571;BME280;47463;49.884;10.010;2024-03-02T09:50:01;100930;;;8.3;79
61571;BME280;47463;49.884;10.010;2024-03-02T09:55:01;100930;;;8.6;78
61571;BME280;47463;49.884;10.010;2024-03-02T10:00:01;100920;;;8.8;78
61571;BME280;47463;49.884;10.010;2024-03-02T10:05:01;100920;;;8.7;77
61571;BME280;47463;49.884;10.010;2024-03-02T10:10:11;100920;;;8.6;77
61571;BME280;47463;49.884;10.010;2024-03-02T10:15:03;100930;;;8.5;77
61571;BME280;47463;49.884;10.010;2024-03-02T10:20:06;100920;;;8.7;77
61571;BME280;47463;49.884;10.010;2024-03-02T10:25:01;100910;;;9.1;76
61571;BME280;47463;49.884;10.010;2024-03-02T10:30:02;100910;;;9.6;75
61571;BME280;47463;49.884;10.010;2024-03-02T10:35:01;100910;;;9.5;74
61571;BME280;47463;49.884;10.010;2024-03-02T10:40:04;100910;;;9.7;74
61571;BME280;47463;49.884;10.010;2024-03-02T10:45:01;100910;;;9.8;74
61571;BME280;47463;49.884;10.010;2024-03-02T10:50:01;100910;;;10.1;73
61571;BME280;47463;49.884;10.010;2024-03-02T10:55:01;100890;;;10.3;72
61571;BME280;47463;49.884;10.010;2024-03-02T11:00:02;100890;;;10;72
61571;BME280;47463;49.884;10.010;2024-03-02T11:05:01;100890;;;10;72
61571;BME280;47463;49.884;10.010;2024-03-02T11:10:01;100890;;;9.8;72
61571;BME280;47463;49.884;10.010;2024-03-02T11:15:01;100880;;;10;72
61571;BME280;47463;49.884;10.010;2024-03-02T11:20:01;100880;;;10.2;70
61571;BME280;47463;49.884;10.010;2024-03-02T11:25:01;100880;;;10.5;69
61571;BME280;47463;49.884;10.010;2024-03-02T11:30:01;100860;;;10.5;68
61571;BME280;47463;49.884;10.010;2024-03-02T11:35:01;100860;;;10.8;68
61571;BME280;47463;49.884;10.010;2024-03-02T11:40:01;100860;;;10.9;67
61571;BME280;47463;49.884;10.010;2024-03-02T11:45:01;100850;;;11.2;66
61571;BME280;47463;49.884;10.010;2024-03-02T11:50:01;100850;;;11.1;66
61571;BME280;47463;49.884;10.010;2024-03-02T11:55:01;100840;;;11.2;66
61571;BME280;47463;49.884;10.010;2024-03-02T12:00:01;100830;;;11.9;63
61571;BME280;47463;49.884;10.010;2024-03-02T12:05:02;100820;;;11.9;63
61571;BME280;47463;49.884;10.010;2024-03-02T12:10:01;100810;;;11.6;63
61571;BME280;47463;49.884;10.010;2024-03-02T12:15:01;100800;;;11.7;62
61571;BME280;47463;49.884;10.010;2024-03-02T12:20:01;100780;;;11.8;61
61571;BME280;47463;49.884;10.010;2024-03-02T12:25:01;100780;;;12;60
61571;BME280;47463;49.884;10.010;2024-03-02T12:30:01;100780;;;12.1;60
61571;BME280;47463;49.884;10.010;2024-03-02T12:35:01;100770;;;12.3;59
61571;BME280;47463;49.884;10.010;2024-03-02T12:40:01;100760;;;12.3;59
61571;BME280;47463;49.884;10.010;2024-03-02T12:45:01;100750;;;12.4;57
61571;BME280;47463;49.884;10.010;2024-03-02T12:50:01;100750;;;12.8;56
61571;BME280;47463;49.884;10.010;2024-03-02T12:55:01;100740;;;12.7;57
61571;BME280;47463;49.884;10.010;2024-03-02T13:00:01;100730;;;12.6;56
61571;BME280;47463;49.884;10.010;2024-03-02T13:05:01;100730;;;12.7;57
61571;BME280;47463;49.884;10.010;2024-03-02T13:10:01;100730;;;13;56
61571;BME280;47463;49.884;10.010;2024-03-02T13:15:01;100700;;;13;56
61571;BME280;47463;49.884;10.010;2024-03-02T13:20:01;100700;;;13;55
61571;BME280;47463;49.884;10.010;2024-03-02T13:25:01;100680;;;13.3;53
61571;BME280;47463;49.884;10.010;2024-03-02T13:30:01;100680;;;13.1;54
61571;BME280;47463;49.884;10.010;2024-03-02T13:35:01;100680;;;13.3;54
61571;BME280;47463;49.884;10.010;2024-03-02T13:40:01;100670;;;13.4;55
61571;BME280;47463;49.884;10.010;2024-03-02T13:45:01;100670;;;13.4;54
61571;BME280;47463;49.884;10.010;2024-03-02T13:50:01;100660;;;13.3;55
61571;BME280;47463;49.884;10.010;2024-03-02T13:55:01;100670;;;13.3;55
61571;BME280;47463;49.884;10.010;2024-03-02T14:00:01;100660;;;13.5;56
61571;BME280;47463;49.884;10.010;2024-03-02T14:05:01;100660;;;13.4;55
61571;BME280;47463;49.884;10.010;2024-03-02T14:10:01;100660;;;13.5;55
61571;BME280;47463;49.884;10.010;2024-03-02T14:15:01;100640;;;13.5;55
61571;BME280;47463;49.884;10.010;2024-03-02T14:20:01;100640;;;13.6;55
61571;BME280;47463;49.884;10.010;2024-03-02T14:25:01;100640;;;13.6;54
61571;BME280;47463;49.884;10.010;2024-03-02T14:30:01;100640;;;13.6;54
61571;BME280;47463;49.884;10.010;2024-03-02T14:35:01;100640;;;13.5;52
61571;BME280;47463;49.884;10.010;2024-03-02T14:40:01;100640;;;13.5;52
61571;BME280;47463;49.884;10.010;2024-03-02T14:45:01;100640;;;13.6;52
61571;BME280;47463;49.884;10.010;2024-03-02T14:50:01;100630;;;13.3;52
61571;BME280;47463;49.884;10.010;2024-03-02T14:55:01;100630;;;13.2;54
61571;BME280;47463;49.884;10.010;2024-03-02T15:00:01;100630;;;13;55
61571;BME280;47463;49.884;10.010;2024-03-02T15:05:01;100630;;;12.9;58
61571;BME280;47463;49.884;10.010;2024-03-02T15:10:01;100640;;;12.9;58
61571;BME280;47463;49.884;10.010;2024-03-02T15:15:01;100630;;;13;59
61571;BME280;47463;49.884;10.010;2024-03-02T15:20:01;100620;;;13.1;57
61571;BME280;47463;49.884;10.010;2024-03-02T15:25:01;100620;;;12.9;58
61571;BME280;47463;49.884;10.010;2024-03-02T15:30:01;100620;;;12.9;57
61571;BME280;47463;49.884;10.010;2024-03-02T15:35:01;100610;;;13;57
61571;BME280;47463;49.884;10.010;2024-03-02T15:40:01;100610;;;13;57
61571;BME280;47463;49.884;10.010;2024-03-02T15:45:01;100590;;;13;57
61571;BME280;47463;49.884;10.010;2024-03-02T15:50:01;100600;;;12.9;57
61571;BME280;47463;49.884;10.010;2024-03-02T15:55:01;100590;;;12.9;57
61571;BME280;47463;49.884;10.010;2024-03-02T16:00:01;100600;;;12.8;58
61571;BME280;47463;49.884;10.010;2024-03-02T16:05:01;100600;;;12.7;59
61571;BME280;47463;49.884;10.010;2024-03-02T16:10:01;100590;;;12.6;60
61571;BME280;47463;49.884;10.010;2024-03-02T16:15:01;100600;;;12.4;61
61571;BME280;47463;49.884;10.010;2024-03-02T16:20:01;100600;;;12.3;61
61571;BME280;47463;49.884;10.010;2024-03-02T16:25:01;100590;;;12.1;62
61571;BME280;47463;49.884;10.010;2024-03-02T16:30:01;100600;;;12;63
61571;BME280;47463;49.884;10.010;2024-03-02T16:35:01;100600;;;11.9;63
61571;BME280;47463;49.884;10.010;2024-03-02T16:40:01;100600;;;11.7;63
61571;BME280;47463;49.884;10.010;2024-03-02T16:45:01;100610;;;11.6;64
61571;BME280;47463;49.884;10.010;2024-03-02T16:50:01;100600;;;11.3;64
61571;BME280;47463;49.884;10.010;2024-03-02T16:55:01;100600;;;11.1;65
61571;BME280;47463;49.884;10.010;2024-03-02T17:00:01;100610;;;10.8;66
61571;BME280;47463;49.884;10.010;2024-03-02T17:05:01;100610;;;10.6;66
61571;BME280;47463;49.884;10.010;2024-03-02T17:10:01;100620;;;10.4;66
61571;BME280;47463;49.884;10.010;2024-03-02T17:15:01;100620;;;10.2;67
61571;BME280;47463;49.884;10.010;2024-03-02T17:20:01;100620;;;9.9;67
61571;BME280;47463;49.884;10.010;2024-03-02T17:25:01;100630;;;9.8;68
61571;BME280;47463;49.884;10.010;2024-03-02T17:30:01;100630;;;9.8;67
61571;BME280;47463;49.884;10.010;2024-03-02T17:35:01;100630;;;9.7;67
61571;BME280;47463;49.884;10.010;2024-03-02T17:40:01;100620;;;9.7;67
61571;BME280;47463;49.884;10.010;2024-03-02T17:45:01;100630;;;9.7;67
61571;BME280;47463;49.884;10.010;2024-03-02T17:50:01;100640;;;9.6;68
61571;BME280;47463;49.884;10.010;2024-03-02T17:55:01;100650;;;9.3;68
61571;BME280;47463;49.884;10.010;2024-03-02T18:00:01;100650;;;9.1;69
61571;BME280;47463;49.884;10.010;2024-03-02T18:05:01;100660;;;9;70
61571;BME280;47463;49.884;10.010;2024-03-02T18:10:01;100660;;;8.8;70
61571;BME280;47463;49.884;10.010;2024-03-02T18:15:01;100670;;;8.7;71
61571;BME280;47463;49.884;10.010;2024-03-02T18:20:01;100670;;;8.6;72
61571;BME280;47463;49.884;10.010;2024-03-02T18:25:01;100660;;;8.5;73
61571;BME280;47463;49.884;10.010;2024-03-02T18:30:01;100660;;;8.5;73
61571;BME280;47463;49.884;10.010;2024-03-02T18:35:01;100660;;;8.5;73
61571;BME280;47463;49.884;10.010;2024-03-02T18:40:01;100660;;;8.4;73
61571;BME280;47463;49.884;10.010;2024-03-02T18:45:01;100660;;;8.4;73
61571;BME280;47463;49.884;10.010;2024-03-02T18:50:01;100660;;;8.4;73
61571;BME280;47463;49.884;10.010;2024-03-02T18:55:01;100650;;;8.3;74
61571;BME280;47463;49.884;10.010;2024-03-02T19:00:01;100650;;;8.3;73
61571;BME280;47463;49.884;10.010;2024-03-02T19:05:01;100650;;;8.2;74
61571;BME280;47463;49.884;10.010;2024-03-02T19:10:01;100650;;;8;74
61571;BME280;47463;49.884;10.010;2024-03-02T19:15:01;100640;;;8;74
61571;BME280;47463;49.884;10.010;2024-03-02T19:20:01;100650;;;7.8;75
61571;BME280;47463;49.884;10.010;2024-03-02T19:25:01;100640;;;7.6;75
61571;BME280;47463;49.884;10.010;2024-03-02T19:30:01;100640;;;7.5;76
61571;BME280;47463;49.884;10.010;2024-03-02T19:35:01;100640;;;7.3;76
61571;BME280;47463;49.884;10.010;2024-03-02T19:40:01;100640;;;7.1;76
61571;BME280;47463;49.884;10.010;2024-03-02T19:45:01;100640;;;6.9;77
61571;BME280;47463;49.884;10.010;2024-03-02T19:50:01;100640;;;6.8;78
61571;BME280;47463;49.884;10.010;2024-03-02T19:55:01;100630;;;7;78
61571;BME280;47463;49.884;10.010;2024-03-02T20:00:01;100630;;;7.4;77
61571;BME280;47463;49.884;10.010;2024-03-02T20:05:01;100620;;;7.5;76
61571;BME280;47463;49.884;10.010;2024-03-02T20:10:01;100620;;;7.3;76
61571;BME280;47463;49.884;10.010;2024-03-02T20:15:01;100630;;;7;77
61571;BME280;47463;49.884;10.010;2024-03-02T20:20:01;100630;;;6.8;77
61571;BME280;47463;49.884;10.010;2024-03-02T20:25:01;100610;;;6.4;78
61571;BME280;47463;49.884;10.010;2024-03-02T20:30:01;100610;;;6.2;79
61571;BME280;47463;49.884;10.010;2024-03-02T20:35:01;100610;;;6.3;80
61571;BME280;47463;49.884;10.010;2024-03-02T20:40:01;100610;;;6.4;80
61571;BME280;47463;49.884;10.010;2024-03-02T20:45:01;100610;;;6.4;79
61571;BME280;47463;49.884;10.010;2024-03-02T20:50:01;100600;;;6.4;79
61571;BME280;47463;49.884;10.010;2024-03-02T20:55:01;100600;;;6.4;79
61571;BME280;47463;49.884;10.010;2024-03-02T21:00:01;100600;;;6.4;79
61571;BME280;47463;49.884;10.010;2024-03-02T21:05:01;100590;;;6.3;80
61571;BME280;47463;49.884;10.010;2024-03-02T21:10:01;100580;;;6.2;80
61571;BME280;47463;49.884;10.010;2024-03-02T21:15:01;100580;;;6.2;80
61571;BME280;47463;49.884;10.010;2024-03-02T21:20:01;100580;;;6.1;80
61571;BME280;47463;49.884;10.010;2024-03-02T21:25:01;100580;;;6.1;80
61571;BME280;47463;49.884;10.010;2024-03-02T21:30:01;100570;;;5.9;81
61571;BME280;47463;49.884;10.010;2024-03-02T21:35:01;100550;;;5.7;81
61571;BME280;47463;49.884;10.010;2024-03-02T21:40:01;100560;;;5.6;82
61571;BME280;47463;49.884;10.010;2024-03-02T21:45:01;100550;;;5.6;82
61571;BME280;47463;49.884;10.010;2024-03-02T21:50:01;100560;;;5.6;82
61571;BME280;47463;49.884;10.010;2024-03-02T21:55:01;100550;;;5.6;82
61571;BME280;47463;49.884;10.010;2024-03-02T22:00:01;100540;;;5.5;82
61571;BME280;47463;49.884;10.010;2024-03-02T22:05:01;100530;;;5.5;82
61571;BME280;47463;49.884;10.010;2024-03-02T22:10:01;100540;;;5.5;83
61571;BME280;47463;49.884;10.010;2024-03-02T22:15:01;100530;;;5.5;83
61571;BME280;47463;49.884;10.010;2024-03-02T22:20:01;100530;;;5.4;83
61571;BME280;47463;49.884;10.010;2024-03-02T22:25:01;100530;;;5.4;83
61571;BME280;47463;49.884;10.010;2024-03-02T22:30:01;100530;;;5.5;83
61571;BME280;47463;49.884;10.010;2024-03-02T22:35:01;100530;;;5.5;83
61571;BME280;47463;49.884;10.010;2024-03-02T22:40:01;100540;;;5.4;83
61571;BME280;47463;49.884;10.010;2024-03-02T22:45:01;100550;;;5.4;83
61571;BME280;47463;49.884;10.010;2024-03-02T22:50:01;100550;;;5.5;83
61571;BME280;47463;49.884;10.010;2024-03-02T22:55:01;100550;;;5.6;83
61571;BME280;47463;49.884;10.010;2024-03-02T23:00:01;100560;;;5.6;83
61571;BME280;47463;49.884;10.010;2024-03-02T23:05:01;100560;;;5.5;83
61571;BME280;47463;49.884;10.010;2024-03-02T23:10:01;100560;;;5.5;83
61571;BME280;47463;49.884;10.010;2024-03-02T23:15:01;100550;;;5.4;83
61571;BME280;47463;49.884;10.010;2024-03-02T23:20:01;100540;;;5.4;83
61571;BME280;47463;49.884;10.010;2024-03-02T23:25:01;100540;;;5.3;83
61571;BME280;47463;49.884;10.010;2024-03-02T23:30:01;100540;;;5.3;83
61571;BME280;47463;49.884;10.010;2024-03-02T23:35:01;100530;;;5.3;83
61571;BME280;47463;49.884;10.010;2024-03-02T23:40:01;100520;;;5.3;83
61571;BME280;47463;49.884;10.010;2024-03-02T23:45:01;100530;;;5.2;84
61571;BME280;47463;49.884;10.010;2024-03-02T23:50:01;100510;;;5.1;84
61571;BME280;47463;49.884;10.010;2024-03-02T23:55:01;100510;;;5.1;84
